sensor_id;sensor_type;location;lat;lon;timestamp;P1;durP1;ratioP1;P2;durP2;ratioP2
54937;SDS011;52756;52.826;6.214;2023-02-03T00:00:57;10.10;;;2.30;;
54937;SDS011;52756;52.826;6.214;2023-02-03T00:03:23;7.22;;;2.33;;
54937;SDS011;52756;52.826;6.214;2023-02-03T00:05:48;11.60;;;2.45;;
54937;SDS011;52756;52.826;6.214;2023-02-03T00:08:14;12.77;;;2.15;;
54937;SDS011;52756;52.826;6.214;2023-02-03T00:10:42;8.68;;;2.13;;
54937;SDS011;52756;52.826;6.214;2023-02-03T00:13:08;5.35;;;1.58;;
54937;SDS011;52756;52.826;6.214;2023-02-03T00:15:34;8.35;;;1.50;;
54937;SDS011;52756;52.826;6.214;2023-02-03T00:18:00;9.07;;;2.03;;
54937;SDS011;52756;52.826;6.214;2023-02-03T00:20:25;5.75;;;1.60;;
54937;SDS011;52756;52.826;6.214;2023-02-03T00:22:51;5.90;;;1.63;;
54937;SDS011;52756;52.826;6.214;2023-02-03T00:25:17;9.75;;;2.60;;
54937;SDS011;52756;52.826;6.214;2023-02-03T00:27:43;10.57;;;1.80;;
54937;SDS011;52756;52.826;6.214;2023-02-03T00:30:10;8.00;;;2.00;;
54937;SDS011;52756;52.826;6.214;2023-02-03T00:32:36;11.25;;;2.70;;
54937;SDS011;52756;52.826;6.214;2023-02-03T00:35:02;10.25;;;2.65;;
54937;SDS011;52756;52.826;6.214;2023-02-03T00:37:29;4.57;;;1.73;;
54937;SDS011;52756;52.826;6.214;2023-02-03T00:39:54;8.63;;;2.47;;
54937;SDS011;52756;52.826;6.214;2023-02-03T00:42:20;7.55;;;1.98;;
54937;SDS011;52756;52.826;6.214;2023-02-03T00:44:46;13.60;;;2.97;;
54937;SDS011;52756;52.826;6.214;2023-02-03T00:47:12;11.70;;;2.63;;
54937;SDS011;52756;52.826;6.214;2023-02-03T00:49:38;7.35;;;2.17;;
54937;SDS011;52756;52.826;6.214;2023-02-03T00:52:04;12.55;;;2.95;;
54937;SDS011;52756;52.826;6.214;2023-02-03T00:54:29;9.80;;;2.50;;
54937;SDS011;52756;52.826;6.214;2023-02-03T00:56:55;11.57;;;2.80;;
54937;SDS011;52756;52.826;6.214;2023-02-03T00:59:21;11.88;;;3.08;;
54937;SDS011;52756;52.826;6.214;2023-02-03T01:01:46;8.05;;;2.25;;
54937;SDS011;52756;52.826;6.214;2023-02-03T01:04:15;11.38;;;3.33;;
54937;SDS011;52756;52.826;6.214;2023-02-03T01:06:40;10.80;;;2.65;;
54937;SDS011;52756;52.826;6.214;2023-02-03T01:09:06;9.07;;;2.75;;
54937;SDS011;52756;52.826;6.214;2023-02-03T01:11:32;7.40;;;2.63;;
54937;SDS011;52756;52.826;6.214;2023-02-03T01:13:58;16.02;;;3.28;;
54937;SDS011;52756;52.826;6.214;2023-02-03T01:16:26;8.35;;;2.80;;
54937;SDS011;52756;52.826;6.214;2023-02-03T01:18:54;9.25;;;2.60;;
54937;SDS011;52756;52.826;6.214;2023-02-03T01:21:24;10.38;;;2.83;;
54937;SDS011;52756;52.826;6.214;2023-02-03T01:23:51;8.55;;;2.33;;
54937;SDS011;52756;52.826;6.214;2023-02-03T01:26:19;12.32;;;2.80;;
54937;SDS011;52756;52.826;6.214;2023-02-03T01:28:56;12.90;;;3.03;;
54937;SDS011;52756;52.826;6.214;2023-02-03T01:31:24;13.85;;;3.33;;
54937;SDS011;52756;52.826;6.214;2023-02-03T01:33:55;7.47;;;2.75;;
54937;SDS011;52756;52.826;6.214;2023-02-03T01:36:22;11.30;;;2.63;;
54937;SDS011;52756;52.826;6.214;2023-02-03T01:38:49;10.77;;;2.95;;
54937;SDS011;52756;52.826;6.214;2023-02-03T01:41:19;13.75;;;2.53;;
54937;SDS011;52756;52.826;6.214;2023-02-03T01:43:48;10.68;;;2.50;;
54937;SDS011;52756;52.826;6.214;2023-02-03T01:49:07;9.95;;;3.05;;
54937;SDS011;52756;52.826;6.214;2023-02-03T01:51:38;10.85;;;3.10;;
54937;SDS011;52756;52.826;6.214;2023-02-03T01:54:06;9.50;;;2.75;;
54937;SDS011;52756;52.826;6.214;2023-02-03T01:56:36;6.68;;;1.95;;
54937;SDS011;52756;52.826;6.214;2023-02-03T01:59:05;10.32;;;2.50;;
54937;SDS011;52756;52.826;6.214;2023-02-03T02:01:32;7.68;;;2.65;;
54937;SDS011;52756;52.826;6.214;2023-02-03T02:04:00;10.75;;;2.35;;
54937;SDS011;52756;52.826;6.214;2023-02-03T02:06:27;11.32;;;3.30;;
54937;SDS011;52756;52.826;6.214;2023-02-03T02:08:53;9.85;;;2.50;;
54937;SDS011;52756;52.826;6.214;2023-02-03T02:11:21;10.20;;;2.70;;
54937;SDS011;52756;52.826;6.214;2023-02-03T02:13:48;13.45;;;2.30;;
54937;SDS011;52756;52.826;6.214;2023-02-03T02:18:52;9.45;;;2.63;;
54937;SDS011;52756;52.826;6.214;2023-02-03T02:30:31;8.85;;;2.70;;
54937;SDS011;52756;52.826;6.214;2023-02-03T02:38:50;12.35;;;3.13;;
54937;SDS011;52756;52.826;6.214;2023-02-03T02:41:38;13.02;;;2.47;;
54937;SDS011;52756;52.826;6.214;2023-02-03T02:47:15;8.10;;;2.05;;
54937;SDS011;52756;52.826;6.214;2023-02-03T02:49:45;8.35;;;2.00;;
54937;SDS011;52756;52.826;6.214;2023-02-03T02:52:18;14.27;;;2.72;;
54937;SDS011;52756;52.826;6.214;2023-02-03T02:54:49;11.63;;;2.42;;
54937;SDS011;52756;52.826;6.214;2023-02-03T02:57:17;9.35;;;2.38;;
54937;SDS011;52756;52.826;6.214;2023-02-03T02:59:46;11.30;;;2.00;;
54937;SDS011;52756;52.826;6.214;2023-02-03T03:02:12;9.25;;;2.10;;
54937;SDS011;52756;52.826;6.214;2023-02-03T03:04:37;11.60;;;2.33;;
54937;SDS011;52756;52.826;6.214;2023-02-03T03:07:09;11.73;;;2.75;;
54937;SDS011;52756;52.826;6.214;2023-02-03T03:09:42;9.48;;;2.30;;
54937;SDS011;52756;52.826;6.214;2023-02-03T03:12:16;7.88;;;1.98;;
54937;SDS011;52756;52.826;6.214;2023-02-03T03:14:44;6.60;;;2.00;;
54937;SDS011;52756;52.826;6.214;2023-02-03T03:17:14;8.00;;;2.33;;
54937;SDS011;52756;52.826;6.214;2023-02-03T03:19:46;8.40;;;1.75;;
54937;SDS011;52756;52.826;6.214;2023-02-03T03:22:16;12.77;;;2.60;;
54937;SDS011;52756;52.826;6.214;2023-02-03T03:24:49;10.45;;;2.10;;
54937;SDS011;52756;52.826;6.214;2023-02-03T03:27:24;14.13;;;2.72;;
54937;SDS011;52756;52.826;6.214;2023-02-03T03:29:56;8.95;;;2.47;;
54937;SDS011;52756;52.826;6.214;2023-02-03T03:32:38;11.82;;;2.55;;
54937;SDS011;52756;52.826;6.214;2023-02-03T03:35:04;11.95;;;2.10;;
54937;SDS011;52756;52.826;6.214;2023-02-03T03:37:35;9.77;;;2.10;;
54937;SDS011;52756;52.826;6.214;2023-02-03T03:40:11;8.73;;;1.70;;
54937;SDS011;52756;52.826;6.214;2023-02-03T03:42:47;12.40;;;2.40;;
54937;SDS011;52756;52.826;6.214;2023-02-03T03:45:21;7.78;;;2.13;;
54937;SDS011;52756;52.826;6.214;2023-02-03T03:50:31;12.00;;;2.60;;
54937;SDS011;52756;52.826;6.214;2023-02-03T03:53:01;8.50;;;2.08;;
54937;SDS011;52756;52.826;6.214;2023-02-03T03:55:29;7.45;;;1.95;;
54937;SDS011;52756;52.826;6.214;2023-02-03T03:57:57;11.73;;;3.30;;
54937;SDS011;52756;52.826;6.214;2023-02-03T04:00:30;8.90;;;2.45;;
54937;SDS011;52756;52.826;6.214;2023-02-03T04:02:59;10.23;;;2.13;;
54937;SDS011;52756;52.826;6.214;2023-02-03T04:05:31;12.15;;;2.60;;
54937;SDS011;52756;52.826;6.214;2023-02-03T04:07:58;10.52;;;1.65;;
54937;SDS011;52756;52.826;6.214;2023-02-03T04:10:32;12.70;;;2.25;;
54937;SDS011;52756;52.826;6.214;2023-02-03T04:13:02;6.85;;;2.58;;
54937;SDS011;52756;52.826;6.214;2023-02-03T04:15:29;12.70;;;3.13;;
54937;SDS011;52756;52.826;6.214;2023-02-03T04:17:55;11.50;;;1.80;;
54937;SDS011;52756;52.826;6.214;2023-02-03T04:20:21;10.13;;;2.70;;
54937;SDS011;52756;52.826;6.214;2023-02-03T04:22:48;7.95;;;1.95;;
54937;SDS011;52756;52.826;6.214;2023-02-03T04:25:14;10.75;;;2.33;;
54937;SDS011;52756;52.826;6.214;2023-02-03T04:27:40;10.10;;;1.90;;
54937;SDS011;52756;52.826;6.214;2023-02-03T04:30:06;10.20;;;2.55;;
54937;SDS011;52756;52.826;6.214;2023-02-03T04:32:32;9.63;;;2.33;;
54937;SDS011;52756;52.826;6.214;2023-02-03T04:34:59;10.45;;;2.28;;
54937;SDS011;52756;52.826;6.214;2023-02-03T04:37:26;8.60;;;2.03;;
54937;SDS011;52756;52.826;6.214;2023-02-03T04:39:52;10.00;;;1.83;;
54937;SDS011;52756;52.826;6.214;2023-02-03T04:42:19;8.32;;;2.40;;
54937;SDS011;52756;52.826;6.214;2023-02-03T04:44:46;9.52;;;2.30;;
54937;SDS011;52756;52.826;6.214;2023-02-03T04:47:11;10.73;;;2.42;;
54937;SDS011;52756;52.826;6.214;2023-02-03T04:49:38;12.02;;;2.72;;
54937;SDS011;52756;52.826;6.214;2023-02-03T04:52:03;14.90;;;2.53;;
54937;SDS011;52756;52.826;6.214;2023-02-03T04:54:30;10.18;;;2.55;;
54937;SDS011;52756;52.826;6.214;2023-02-03T04:56:56;6.13;;;2.08;;
54937;SDS011;52756;52.826;6.214;2023-02-03T04:59:21;11.98;;;2.33;;
54937;SDS011;52756;52.826;6.214;2023-02-03T05:01:47;12.55;;;2.00;;
54937;SDS011;52756;52.826;6.214;2023-02-03T05:04:13;9.52;;;2.30;;
54937;SDS011;52756;52.826;6.214;2023-02-03T05:06:38;10.27;;;1.83;;
54937;SDS011;52756;52.826;6.214;2023-02-03T05:09:04;10.95;;;2.17;;
54937;SDS011;52756;52.826;6.214;2023-02-03T05:11:30;14.32;;;2.83;;
54937;SDS011;52756;52.826;6.214;2023-02-03T05:13:55;9.38;;;2.53;;
54937;SDS011;52756;52.826;6.214;2023-02-03T05:16:21;13.25;;;2.42;;
54937;SDS011;52756;52.826;6.214;2023-02-03T05:18:47;11.35;;;2.83;;
54937;SDS011;52756;52.826;6.214;2023-02-03T05:21:13;11.18;;;2.65;;
54937;SDS011;52756;52.826;6.214;2023-02-03T05:23:39;9.90;;;2.05;;
54937;SDS011;52756;52.826;6.214;2023-02-03T05:26:05;11.75;;;2.40;;
54937;SDS011;52756;52.826;6.214;2023-02-03T05:28:30;8.07;;;2.22;;
54937;SDS011;52756;52.826;6.214;2023-02-03T05:30:57;9.93;;;2.22;;
54937;SDS011;52756;52.826;6.214;2023-02-03T05:33:23;10.60;;;2.30;;
54937;SDS011;52756;52.826;6.214;2023-02-03T05:35:49;9.65;;;2.00;;
54937;SDS011;52756;52.826;6.214;2023-02-03T05:38:15;7.30;;;2.60;;
54937;SDS011;52756;52.826;6.214;2023-02-03T05:40:41;12.98;;;2.85;;
54937;SDS011;52756;52.826;6.214;2023-02-03T05:43:25;11.50;;;2.17;;
54937;SDS011;52756;52.826;6.214;2023-02-03T05:45:52;10.80;;;2.58;;
54937;SDS011;52756;52.826;6.214;2023-02-03T05:48:18;8.70;;;2.47;;
54937;SDS011;52756;52.826;6.214;2023-02-03T05:50:43;9.48;;;2.28;;
54937;SDS011;52756;52.826;6.214;2023-02-03T05:53:09;11.38;;;2.45;;
54937;SDS011;52756;52.826;6.214;2023-02-03T05:55:36;11.27;;;2.05;;
54937;SDS011;52756;52.826;6.214;2023-02-03T05:58:02;6.32;;;1.73;;
54937;SDS011;52756;52.826;6.214;2023-02-03T06:00:29;8.68;;;2.13;;
54937;SDS011;52756;52.826;6.214;2023-02-03T06:02:56;12.40;;;2.08;;
54937;SDS011;52756;52.826;6.214;2023-02-03T06:05:24;9.38;;;2.00;;
54937;SDS011;52756;52.826;6.214;2023-02-03T06:07:50;13.45;;;3.25;;
54937;SDS011;52756;52.826;6.214;2023-02-03T06:10:16;8.25;;;1.80;;
54937;SDS011;52756;52.826;6.214;2023-02-03T06:12:43;11.48;;;2.35;;
54937;SDS011;52756;52.826;6.214;2023-02-03T06:15:09;10.80;;;2.40;;
54937;SDS011;52756;52.826;6.214;2023-02-03T06:17:35;13.82;;;2.50;;
54937;SDS011;52756;52.826;6.214;2023-02-03T06:20:02;9.95;;;2.55;;
54937;SDS011;52756;52.826;6.214;2023-02-03T06:22:35;14.70;;;3.38;;
54937;SDS011;52756;52.826;6.214;2023-02-03T06:25:00;8.35;;;2.55;;
54937;SDS011;52756;52.826;6.214;2023-02-03T06:27:26;8.32;;;2.05;;
54937;SDS011;52756;52.826;6.214;2023-02-03T06:29:52;10.93;;;2.10;;
54937;SDS011;52756;52.826;6.214;2023-02-03T06:32:17;10.45;;;2.90;;
54937;SDS011;52756;52.826;6.214;2023-02-03T06:34:43;12.82;;;2.60;;
54937;SDS011;52756;52.826;6.214;2023-02-03T06:37:09;10.45;;;2.30;;
54937;SDS011;52756;52.826;6.214;2023-02-03T06:39:35;11.25;;;2.58;;
54937;SDS011;52756;52.826;6.214;2023-02-03T06:42:01;18.08;;;3.22;;
54937;SDS011;52756;52.826;6.214;2023-02-03T06:44:26;11.07;;;2.90;;
54937;SDS011;52756;52.826;6.214;2023-02-03T06:46:52;13.20;;;2.58;;
54937;SDS011;52756;52.826;6.214;2023-02-03T06:49:18;10.18;;;2.20;;
54937;SDS011;52756;52.826;6.214;2023-02-03T06:51:44;9.68;;;2.35;;
54937;SDS011;52756;52.826;6.214;2023-02-03T06:54:11;9.68;;;2.85;;
54937;SDS011;52756;52.826;6.214;2023-02-03T06:56:37;15.05;;;2.70;;
54937;SDS011;52756;52.826;6.214;2023-02-03T06:59:03;14.77;;;3.33;;
54937;SDS011;52756;52.826;6.214;2023-02-03T07:01:30;11.60;;;2.63;;
54937;SDS011;52756;52.826;6.214;2023-02-03T07:03:56;11.80;;;2.70;;
54937;SDS011;52756;52.826;6.214;2023-02-03T07:06:26;16.63;;;3.50;;
54937;SDS011;52756;52.826;6.214;2023-02-03T07:08:54;12.27;;;2.78;;
54937;SDS011;52756;52.826;6.214;2023-02-03T07:11:23;13.93;;;3.22;;
54937;SDS011;52756;52.826;6.214;2023-02-03T07:13:50;14.25;;;3.15;;
54937;SDS011;52756;52.826;6.214;2023-02-03T07:16:16;13.70;;;3.13;;
54937;SDS011;52756;52.826;6.214;2023-02-03T07:18:42;16.42;;;3.28;;
54937;SDS011;52756;52.826;6.214;2023-02-03T07:21:08;10.82;;;2.80;;
54937;SDS011;52756;52.826;6.214;2023-02-03T07:23:34;10.18;;;2.50;;
54937;SDS011;52756;52.826;6.214;2023-02-03T07:26:00;12.48;;;2.53;;
54937;SDS011;52756;52.826;6.214;2023-02-03T07:28:28;12.40;;;3.10;;
54937;SDS011;52756;52.826;6.214;2023-02-03T07:30:57;10.73;;;2.47;;
54937;SDS011;52756;52.826;6.214;2023-02-03T07:33:24;14.88;;;3.75;;
54937;SDS011;52756;52.826;6.214;2023-02-03T07:35:53;18.27;;;3.63;;
54937;SDS011;52756;52.826;6.214;2023-02-03T07:38:21;15.60;;;3.55;;
54937;SDS011;52756;52.826;6.214;2023-02-03T07:40:47;12.65;;;2.67;;
54937;SDS011;52756;52.826;6.214;2023-02-03T07:43:13;12.95;;;3.08;;
54937;SDS011;52756;52.826;6.214;2023-02-03T07:45:39;13.77;;;2.85;;
54937;SDS011;52756;52.826;6.214;2023-02-03T07:48:04;13.90;;;3.03;;
54937;SDS011;52756;52.826;6.214;2023-02-03T07:50:30;12.25;;;3.47;;
54937;SDS011;52756;52.826;6.214;2023-02-03T07:52:57;11.27;;;2.50;;
54937;SDS011;52756;52.826;6.214;2023-02-03T07:55:23;8.80;;;2.65;;
54937;SDS011;52756;52.826;6.214;2023-02-03T07:57:50;14.35;;;3.35;;
54937;SDS011;52756;52.826;6.214;2023-02-03T08:00:18;15.15;;;3.47;;
54937;SDS011;52756;52.826;6.214;2023-02-03T08:02:44;11.52;;;2.65;;
54937;SDS011;52756;52.826;6.214;2023-02-03T08:05:11;10.02;;;2.50;;
54937;SDS011;52756;52.826;6.214;2023-02-03T08:07:37;14.30;;;3.33;;
54937;SDS011;52756;52.826;6.214;2023-02-03T08:10:03;13.60;;;3.20;;
54937;SDS011;52756;52.826;6.214;2023-02-03T08:12:29;10.90;;;2.55;;
54937;SDS011;52756;52.826;6.214;2023-02-03T08:14:55;16.77;;;3.75;;
54937;SDS011;52756;52.826;6.214;2023-02-03T08:17:20;15.35;;;3.20;;
54937;SDS011;52756;52.826;6.214;2023-02-03T08:19:46;16.17;;;3.13;;
54937;SDS011;52756;52.826;6.214;2023-02-03T08:22:12;19.55;;;4.28;;
54937;SDS011;52756;52.826;6.214;2023-02-03T08:24:44;12.32;;;3.13;;
54937;SDS011;52756;52.826;6.214;2023-02-03T08:27:11;13.93;;;3.75;;
54937;SDS011;52756;52.826;6.214;2023-02-03T08:29:38;20.30;;;3.80;;
54937;SDS011;52756;52.826;6.214;2023-02-03T08:32:04;18.58;;;3.28;;
54937;SDS011;52756;52.826;6.214;2023-02-03T08:34:30;15.10;;;3.38;;
54937;SDS011;52756;52.826;6.214;2023-02-03T08:36:58;9.35;;;2.55;;
54937;SDS011;52756;52.826;6.214;2023-02-03T08:39:24;13.57;;;3.55;;
54937;SDS011;52756;52.826;6.214;2023-02-03T08:41:49;14.32;;;3.03;;
54937;SDS011;52756;52.826;6.214;2023-02-03T08:44:15;13.77;;;3.30;;
54937;SDS011;52756;52.826;6.214;2023-02-03T08:46:42;19.15;;;4.45;;
54937;SDS011;52756;52.826;6.214;2023-02-03T08:49:09;13.60;;;3.45;;
54937;SDS011;52756;52.826;6.214;2023-02-03T08:51:35;15.68;;;3.70;;
54937;SDS011;52756;52.826;6.214;2023-02-03T08:54:01;16.20;;;3.67;;
54937;SDS011;52756;52.826;6.214;2023-02-03T08:56:27;10.13;;;2.92;;
54937;SDS011;52756;52.826;6.214;2023-02-03T08:58:53;15.00;;;3.53;;
54937;SDS011;52756;52.826;6.214;2023-02-03T09:01:19;11.65;;;3.55;;
54937;SDS011;52756;52.826;6.214;2023-02-03T09:03:45;15.13;;;3.17;;
54937;SDS011;52756;52.826;6.214;2023-02-03T09:06:11;14.60;;;2.90;;
54937;SDS011;52756;52.826;6.214;2023-02-03T09:08:40;13.55;;;3.20;;
54937;SDS011;52756;52.826;6.214;2023-02-03T09:11:08;17.67;;;3.10;;
54937;SDS011;52756;52.826;6.214;2023-02-03T09:13:34;10.40;;;3.08;;
54937;SDS011;52756;52.826;6.214;2023-02-03T09:16:00;14.25;;;4.03;;
54937;SDS011;52756;52.826;6.214;2023-02-03T09:18:26;16.88;;;3.92;;
54937;SDS011;52756;52.826;6.214;2023-02-03T09:20:52;14.40;;;3.55;;
54937;SDS011;52756;52.826;6.214;2023-02-03T09:23:25;11.90;;;3.83;;
54937;SDS011;52756;52.826;6.214;2023-02-03T09:25:51;12.70;;;2.80;;
54937;SDS011;52756;52.826;6.214;2023-02-03T09:28:17;12.30;;;3.03;;
54937;SDS011;52756;52.826;6.214;2023-02-03T09:30:43;16.83;;;4.18;;
54937;SDS011;52756;52.826;6.214;2023-02-03T09:33:08;17.05;;;3.63;;
54937;SDS011;52756;52.826;6.214;2023-02-03T09:35:34;16.08;;;3.90;;
54937;SDS011;52756;52.826;6.214;2023-02-03T09:38:00;16.30;;;3.50;;
54937;SDS011;52756;52.826;6.214;2023-02-03T09:40:26;17.38;;;3.83;;
54937;SDS011;52756;52.826;6.214;2023-02-03T09:45:34;14.77;;;3.50;;
54937;SDS011;52756;52.826;6.214;2023-02-03T09:48:05;17.77;;;3.53;;
54937;SDS011;52756;52.826;6.214;2023-02-03T09:50:37;20.40;;;4.15;;
54937;SDS011;52756;52.826;6.214;2023-02-03T09:53:19;13.70;;;3.35;;
54937;SDS011;52756;52.826;6.214;2023-02-03T09:55:54;24.05;;;4.00;;
54937;SDS011;52756;52.826;6.214;2023-02-03T09:58:22;16.77;;;3.70;;
54937;SDS011;52756;52.826;6.214;2023-02-03T10:00:51;15.32;;;3.25;;
54937;SDS011;52756;52.826;6.214;2023-02-03T10:03:30;21.23;;;3.85;;
54937;SDS011;52756;52.826;6.214;2023-02-03T10:06:11;17.70;;;4.28;;
54937;SDS011;52756;52.826;6.214;2023-02-03T10:11:51;15.65;;;3.35;;
54937;SDS011;52756;52.826;6.214;2023-02-03T10:17:28;16.52;;;3.83;;
54937;SDS011;52756;52.826;6.214;2023-02-03T10:20:17;17.70;;;4.95;;
54937;SDS011;52756;52.826;6.214;2023-02-03T10:22:49;18.05;;;4.53;;
54937;SDS011;52756;52.826;6.214;2023-02-03T10:25:19;20.90;;;4.70;;
54937;SDS011;52756;52.826;6.214;2023-02-03T10:27:55;19.02;;;5.22;;
54937;SDS011;52756;52.826;6.214;2023-02-03T10:30:30;15.27;;;3.60;;
54937;SDS011;52756;52.826;6.214;2023-02-03T10:33:09;21.42;;;4.97;;
54937;SDS011;52756;52.826;6.214;2023-02-03T10:35:52;20.85;;;5.05;;
54937;SDS011;52756;52.826;6.214;2023-02-03T10:41:18;14.73;;;3.67;;
54937;SDS011;52756;52.826;6.214;2023-02-03T10:43:45;19.70;;;5.45;;
54937;SDS011;52756;52.826;6.214;2023-02-03T10:46:15;21.88;;;5.10;;
54937;SDS011;52756;52.826;6.214;2023-02-03T10:48:43;20.67;;;4.80;;
54937;SDS011;52756;52.826;6.214;2023-02-03T10:51:20;27.40;;;5.20;;
54937;SDS011;52756;52.826;6.214;2023-02-03T10:53:49;24.58;;;4.72;;
54937;SDS011;52756;52.826;6.214;2023-02-03T10:56:17;22.42;;;5.78;;
54937;SDS011;52756;52.826;6.214;2023-02-03T10:58:51;29.70;;;5.57;;
54937;SDS011;52756;52.826;6.214;2023-02-03T11:01:20;22.08;;;5.30;;
54937;SDS011;52756;52.826;6.214;2023-02-03T11:04:01;26.33;;;6.55;;
54937;SDS011;52756;52.826;6.214;2023-02-03T11:06:29;22.23;;;4.85;;
54937;SDS011;52756;52.826;6.214;2023-02-03T11:08:58;28.33;;;5.35;;
54937;SDS011;52756;52.826;6.214;2023-02-03T11:11:25;27.10;;;4.63;;
54937;SDS011;52756;52.826;6.214;2023-02-03T11:13:55;25.10;;;5.88;;
54937;SDS011;52756;52.826;6.214;2023-02-03T11:16:33;25.90;;;5.75;;
54937;SDS011;52756;52.826;6.214;2023-02-03T11:19:04;25.65;;;5.85;;
54937;SDS011;52756;52.826;6.214;2023-02-03T11:29:29;25.88;;;5.15;;
54937;SDS011;52756;52.826;6.214;2023-02-03T11:31:59;30.60;;;5.93;;
54937;SDS011;52756;52.826;6.214;2023-02-03T11:34:29;29.23;;;5.47;;
54937;SDS011;52756;52.826;6.214;2023-02-03T11:42:35;32.78;;;6.20;;
54937;SDS011;52756;52.826;6.214;2023-02-03T11:54:34;32.22;;;6.20;;
54937;SDS011;52756;52.826;6.214;2023-02-03T11:57:04;37.58;;;7.28;;
54937;SDS011;52756;52.826;6.214;2023-02-03T12:02:38;33.97;;;6.32;;
54937;SDS011;52756;52.826;6.214;2023-02-03T12:10:45;32.78;;;5.60;;
54937;SDS011;52756;52.826;6.214;2023-02-03T12:16:40;29.90;;;6.10;;
54937;SDS011;52756;52.826;6.214;2023-02-03T12:28:52;28.35;;;7.05;;
54937;SDS011;52756;52.826;6.214;2023-02-03T12:31:24;31.95;;;5.97;;
54937;SDS011;52756;52.826;6.214;2023-02-03T12:33:56;25.67;;;6.13;;
54937;SDS011;52756;52.826;6.214;2023-02-03T12:36:39;31.20;;;7.10;;
54937;SDS011;52756;52.826;6.214;2023-02-03T12:42:04;30.98;;;5.70;;
54937;SDS011;52756;52.826;6.214;2023-02-03T12:44:52;33.45;;;6.97;;
54937;SDS011;52756;52.826;6.214;2023-02-03T12:47:33;30.38;;;8.13;;
54937;SDS011;52756;52.826;6.214;2023-02-03T12:56:13;32.28;;;6.70;;
54937;SDS011;52756;52.826;6.214;2023-02-03T12:58:49;37.70;;;7.32;;
54937;SDS011;52756;52.826;6.214;2023-02-03T13:01:24;30.13;;;6.45;;
54937;SDS011;52756;52.826;6.214;2023-02-03T13:04:09;30.15;;;6.68;;
54937;SDS011;52756;52.826;6.214;2023-02-03T13:09:47;32.95;;;7.05;;
54937;SDS011;52756;52.826;6.214;2023-02-03T13:12:30;41.58;;;7.97;;
54937;SDS011;52756;52.826;6.214;2023-02-03T13:17:47;31.77;;;6.32;;
54937;SDS011;52756;52.826;6.214;2023-02-03T13:20:30;39.53;;;6.95;;
54937;SDS011;52756;52.826;6.214;2023-02-03T13:23:00;27.08;;;6.78;;
54937;SDS011;52756;52.826;6.214;2023-02-03T13:28:39;31.35;;;7.32;;
54937;SDS011;52756;52.826;6.214;2023-02-03T13:31:13;42.40;;;7.32;;
54937;SDS011;52756;52.826;6.214;2023-02-03T13:39:43;30.60;;;6.32;;
54937;SDS011;52756;52.826;6.214;2023-02-03T13:42:29;38.08;;;7.72;;
54937;SDS011;52756;52.826;6.214;2023-02-03T13:45:08;32.80;;;7.50;;
54937;SDS011;52756;52.826;6.214;2023-02-03T13:47:52;31.65;;;5.93;;
54937;SDS011;52756;52.826;6.214;2023-02-03T13:50:29;29.80;;;6.00;;
54937;SDS011;52756;52.826;6.214;2023-02-03T13:53:02;36.13;;;8.43;;
54937;SDS011;52756;52.826;6.214;2023-02-03T13:55:58;27.52;;;6.93;;
54937;SDS011;52756;52.826;6.214;2023-02-03T13:58:30;39.90;;;7.45;;
54937;SDS011;52756;52.826;6.214;2023-02-03T14:05:55;32.58;;;8.15;;
54937;SDS011;52756;52.826;6.214;2023-02-03T14:16:36;25.80;;;5.97;;
54937;SDS011;52756;52.826;6.214;2023-02-03T14:19:03;27.27;;;5.55;;
54937;SDS011;52756;52.826;6.214;2023-02-03T14:21:36;31.00;;;5.88;;
54937;SDS011;52756;52.826;6.214;2023-02-03T14:24:21;31.85;;;6.68;;
54937;SDS011;52756;52.826;6.214;2023-02-03T14:26:51;25.95;;;6.25;;
54937;SDS011;52756;52.826;6.214;2023-02-03T14:29:26;28.17;;;6.38;;
54937;SDS011;52756;52.826;6.214;2023-02-03T14:32:03;21.17;;;5.85;;
54937;SDS011;52756;52.826;6.214;2023-02-03T14:37:19;35.00;;;7.05;;
54937;SDS011;52756;52.826;6.214;2023-02-03T14:50:49;29.52;;;7.18;;
54937;SDS011;52756;52.826;6.214;2023-02-03T14:58:54;28.42;;;5.82;;
54937;SDS011;52756;52.826;6.214;2023-02-03T15:06:40;23.75;;;5.80;;
54937;SDS011;52756;52.826;6.214;2023-02-03T15:12:18;25.23;;;4.93;;
54937;SDS011;52756;52.826;6.214;2023-02-03T15:14:48;26.60;;;5.90;;
54937;SDS011;52756;52.826;6.214;2023-02-03T15:17:21;30.33;;;5.38;;
54937;SDS011;52756;52.826;6.214;2023-02-03T15:19:49;30.27;;;6.05;;
54937;SDS011;52756;52.826;6.214;2023-02-03T15:22:22;28.05;;;6.47;;
54937;SDS011;52756;52.826;6.214;2023-02-03T15:24:57;29.27;;;5.88;;
54937;SDS011;52756;52.826;6.214;2023-02-03T15:27:26;28.25;;;5.72;;
54937;SDS011;52756;52.826;6.214;2023-02-03T15:29:54;27.08;;;6.05;;
54937;SDS011;52756;52.826;6.214;2023-02-03T15:32:24;21.98;;;5.18;;
54937;SDS011;52756;52.826;6.214;2023-02-03T15:35:04;27.50;;;5.70;;
54937;SDS011;52756;52.826;6.214;2023-02-03T15:37:52;26.88;;;5.75;;
54937;SDS011;52756;52.826;6.214;2023-02-03T15:40:22;29.77;;;6.05;;
54937;SDS011;52756;52.826;6.214;2023-02-03T15:43:00;27.17;;;6.20;;
54937;SDS011;52756;52.826;6.214;2023-02-03T15:45:37;25.13;;;5.75;;
54937;SDS011;52756;52.826;6.214;2023-02-03T15:48:14;32.65;;;6.70;;
54937;SDS011;52756;52.826;6.214;2023-02-03T15:50:59;27.60;;;6.30;;
54937;SDS011;52756;52.826;6.214;2023-02-03T15:53:46;26.58;;;5.60;;
54937;SDS011;52756;52.826;6.214;2023-02-03T15:56:22;29.95;;;5.57;;
54937;SDS011;52756;52.826;6.214;2023-02-03T15:59:01;29.73;;;6.18;;
54937;SDS011;52756;52.826;6.214;2023-02-03T16:01:28;31.25;;;7.43;;
54937;SDS011;52756;52.826;6.214;2023-02-03T16:03:55;24.88;;;5.57;;
54937;SDS011;52756;52.826;6.214;2023-02-03T16:06:24;33.33;;;7.30;;
54937;SDS011;52756;52.826;6.214;2023-02-03T16:08:54;29.55;;;7.07;;
54937;SDS011;52756;52.826;6.214;2023-02-03T16:13:50;25.42;;;7.00;;
54937;SDS011;52756;52.826;6.214;2023-02-03T16:16:17;28.55;;;7.55;;
54937;SDS011;52756;52.826;6.214;2023-02-03T16:18:49;32.55;;;7.50;;
54937;SDS011;52756;52.826;6.214;2023-02-03T16:21:30;30.88;;;5.65;;
54937;SDS011;52756;52.826;6.214;2023-02-03T16:24:34;26.67;;;5.97;;
54937;SDS011;52756;52.826;6.214;2023-02-03T16:27:29;31.90;;;5.78;;
54937;SDS011;52756;52.826;6.214;2023-02-03T16:33:09;23.15;;;6.10;;
54937;SDS011;52756;52.826;6.214;2023-02-03T16:36:08;27.60;;;5.68;;
54937;SDS011;52756;52.826;6.214;2023-02-03T16:38:57;32.10;;;6.47;;
54937;SDS011;52756;52.826;6.214;2023-02-03T16:41:44;29.75;;;6.85;;
54937;SDS011;52756;52.826;6.214;2023-02-03T16:44:28;30.05;;;7.47;;
54937;SDS011;52756;52.826;6.214;2023-02-03T16:47:23;40.35;;;7.85;;
54937;SDS011;52756;52.826;6.214;2023-02-03T16:50:12;46.53;;;9.55;;
54937;SDS011;52756;52.826;6.214;2023-02-03T16:53:01;39.50;;;7.55;;
54937;SDS011;52756;52.826;6.214;2023-02-03T16:55:27;41.80;;;8.80;;
54937;SDS011;52756;52.826;6.214;2023-02-03T16:57:53;35.38;;;7.32;;
54937;SDS011;52756;52.826;6.214;2023-02-03T17:00:19;45.15;;;8.65;;
54937;SDS011;52756;52.826;6.214;2023-02-03T17:02:46;38.97;;;8.00;;
54937;SDS011;52756;52.826;6.214;2023-02-03T17:05:15;35.83;;;9.07;;
54937;SDS011;52756;52.826;6.214;2023-02-03T17:07:41;36.88;;;7.72;;
54937;SDS011;52756;52.826;6.214;2023-02-03T17:10:08;39.67;;;9.13;;
54937;SDS011;52756;52.826;6.214;2023-02-03T17:12:34;42.40;;;8.05;;
54937;SDS011;52756;52.826;6.214;2023-02-03T17:15:02;47.05;;;8.60;;
54937;SDS011;52756;52.826;6.214;2023-02-03T17:17:30;38.88;;;7.40;;
54937;SDS011;52756;52.826;6.214;2023-02-03T17:19:56;33.17;;;7.60;;
54937;SDS011;52756;52.826;6.214;2023-02-03T17:22:23;41.40;;;8.10;;
54937;SDS011;52756;52.826;6.214;2023-02-03T17:24:51;30.92;;;7.97;;
54937;SDS011;52756;52.826;6.214;2023-02-03T17:27:16;37.60;;;7.68;;